Time;durP1;ratioP1;P1;durP2;ratioP2;P2;SDS_P1;SDS_P2;PMS_P1;PMS_P2;Temp;Humidity;BMP_temperature;BMP_pressure;BME280_temperature;BME280_humidity;BME280_pressure;Samples;Min_cycle;Max_cycle;Signal;HPM_P1;HPM_P2
2021/07/06 00:02:11;;;;;;;11.00;8.20;;;;;;;18.48;67.40;96448.75;127868;1090;27936;-92
2021/07/06 00:04:42;;;;;;;10.95;7.80;;;;;;;18.44;67.68;96447.86;127873;1092;28509;-90
2021/07/06 00:07:17;;;;;;;10.73;7.70;;;;;;;18.47;67.85;96441.03;127863;1094;24318;-91
2021/07/06 00:09:50;;;;;;;10.48;7.63;;;;;;;18.50;68.23;96451.10;127883;1090;25382;-92
2021/07/06 00:12:22;;;;;;;10.50;8.53;;;;;;;18.55;68.19;96450.88;127853;1090;28364;-92
2021/07/06 00:14:54;;;;;;;12.68;8.95;;;;;;;18.59;68.13;96455.27;127825;1093;27884;-93
2021/07/06 00:17:25;;;;;;;10.55;8.20;;;;;;;18.62;68.17;96453.81;127875;1093;25223;-93
2021/07/06 00:19:57;;;;;;;12.03;8.77;;;;;;;18.59;68.23;96454.48;127887;1092;24366;-92
2021/07/06 00:22:28;;;;;;;11.08;7.98;;;;;;;18.59;68.22;96457.17;127954;1090;24382;-92
2021/07/06 00:25:00;;;;;;;10.97;8.27;;;;;;;18.57;68.05;96451.33;127920;1093;27726;-93
2021/07/06 00:27:32;;;;;;;11.35;8.25;;;;;;;18.56;68.38;96449.75;127906;1090;25277;-93
2021/07/06 00:30:04;;;;;;;13.10;9.50;;;;;;;18.60;68.40;96454.14;127833;1090;28416;-92
2021/07/06 00:32:36;;;;;;;11.88;8.63;;;;;;;18.65;68.15;96459.32;127828;1093;27272;-93
2021/07/06 00:35:09;;;;;;;12.10;9.30;;;;;;;18.58;68.02;96456.39;127840;1091;28044;-92
2021/07/06 00:37:41;;;;;;;11.35;9.33;;;;;;;18.54;68.48;96458.14;127830;1090;32123;-92
2021/07/06 00:40:15;;;;;;;9.70;7.95;;;;;;;18.46;68.63;96456.36;127840;1090;31283;-92
2021/07/06 00:42:48;;;;;;;10.75;8.58;;;;;;;18.31;68.82;96462.36;127858;1093;33079;-92
2021/07/06 00:45:22;;;;;;;11.93;9.05;;;;;;;18.24;69.11;96462.10;127836;1093;26419;-91
2021/07/06 00:47:54;;;;;;;11.30;8.93;;;;;;;18.22;69.04;96467.02;127833;1092;26501;-92
2021/07/06 00:50:26;;;;;;;12.83;9.13;;;;;;;18.18;69.23;96466.90;127839;1093;32803;-91
2021/07/06 00:52:58;;;;;;;10.38;9.10;;;;;;;18.14;69.19;96465.97;127833;1093;27006;-92
2021/07/06 00:55:30;;;;;;;11.80;8.78;;;;;;;18.13;69.30;96474.35;127956;1093;25531;-92
2021/07/06 00:58:02;;;;;;;10.45;9.18;;;;;;;18.10;69.71;96470.44;127923;1089;26447;-92
2021/07/06 01:00:33;;;;;;;13.23;9.28;;;;;;;18.07;69.95;96479.14;127865;1092;29609;-90
2021/07/06 01:03:06;;;;;;;11.78;9.25;;;;;;;18.08;70.04;96478.03;127853;1090;24395;-90
2021/07/06 01:05:38;;;;;;;10.05;7.93;;;;;;;18.08;70.22;96478.81;127853;1090;32118;-92
2021/07/06 01:08:10;;;;;;;10.78;8.63;;;;;;;18.08;70.17;96484.19;127850;1093;28403;-91
2021/07/06 01:10:42;;;;;;;10.83;8.65;;;;;;;18.06;70.22;96480.27;127896;1092;26474;-92
2021/07/06 01:13:14;;;;;;;10.78;8.68;;;;;;;18.01;70.42;96485.81;127865;1093;26827;-91
2021/07/06 01:15:45;;;;;;;11.78;9.43;;;;;;;17.99;70.32;96486.14;127863;1090;25245;-90
2021/07/06 01:18:19;;;;;;;10.40;8.50;;;;;;;17.98;70.47;96491.84;127842;1093;32402;-93
2021/07/06 01:20:52;;;;;;;12.05;9.35;;;;;;;17.95;70.67;96487.14;127889;1090;25122;-91
2021/07/06 01:23:29;;;;;;;12.35;9.48;;;;;;;17.89;70.52;96481.20;127868;1093;26344;-92
2021/07/06 01:26:03;;;;;;;11.70;9.28;;;;;;;17.85;70.90;96484.84;127922;1093;30101;-92
2021/07/06 01:28:35;;;;;;;12.13;8.83;;;;;;;17.82;70.77;96490.87;127863;1093;26894;-91
2021/07/06 01:31:06;;;;;;;10.58;8.65;;;;;;;17.83;70.75;96487.08;127838;1093;25916;-93
2021/07/06 01:33:39;;;;;;;12.13;9.35;;;;;;;17.85;70.83;96490.20;127832;1090;29736;-92
2021/07/06 01:36:10;;;;;;;11.73;8.73;;;;;;;17.82;70.74;96490.87;127850;1093;32436;-93
2021/07/06 01:38:43;;;;;;;11.60;8.58;;;;;;;17.86;70.73;96484.52;127851;1092;27818;-92
2021/07/06 01:41:16;;;;;;;12.08;8.75;;;;;;;17.95;70.68;96492.50;127812;1093;29781;-92
2021/07/06 01:43:48;;;;;;;12.98;9.20;;;;;;;17.94;70.65;96490.94;127827;1093;35489;-92
2021/07/06 01:46:19;;;;;;;12.10;9.28;;;;;;;17.85;70.75;96493.67;127801;1093;28802;-93
2021/07/06 01:48:51;;;;;;;11.25;8.98;;;;;;;17.79;70.76;96490.41;127853;1093;28961;-92
2021/07/06 01:51:22;;;;;;;11.05;8.80;;;;;;;17.70;70.98;96492.36;127859;1091;33080;-91
2021/07/06 01:53:53;;;;;;;13.68;9.60;;;;;;;17.68;71.19;96497.27;127801;1093;27322;-93
2021/07/06 01:56:25;;;;;;;11.90;9.20;;;;;;;17.67;71.25;96501.03;127836;1093;28270;-92
2021/07/06 01:58:56;;;;;;;15.70;9.63;;;;;;;17.65;71.47;96491.75;127795;1093;32889;-93
2021/07/06 02:01:28;;;;;;;12.38;9.93;;;;;;;17.66;71.31;96499.47;127912;1091;25904;-93
2021/07/06 02:03:59;;;;;;;13.43;8.68;;;;;;;17.59;71.46;96504.55;127898;1093;29956;-92
2021/07/06 02:06:31;;;;;;;11.38;8.58;;;;;;;17.55;71.78;96508.21;127942;1093;28308;-91
2021/07/06 02:09:04;;;;;;;14.23;8.80;;;;;;;17.46;72.10;96509.06;127925;1093;28440;-91
2021/07/06 02:11:36;;;;;;;11.75;8.93;;;;;;;17.41;72.01;96517.27;127827;1093;29146;-91
2021/07/06 02:14:07;;;;;;;12.83;9.25;;;;;;;17.31;72.70;96511.49;127888;1093;25188;-92
2021/07/06 02:16:40;;;;;;;10.27;7.93;;;;;;;17.25;72.95;96515.48;127870;1093;26397;-92
2021/07/06 02:19:12;;;;;;;12.40;9.15;;;;;;;17.18;73.96;96511.42;127866;1093;27841;-91
2021/07/06 02:21:43;;;;;;;13.15;8.65;;;;;;;17.12;73.77;96501.98;127848;1093;27670;-91
2021/07/06 02:24:15;;;;;;;10.20;8.35;;;;;;;17.05;73.92;96501.71;127831;1093;30066;-91
2021/07/06 02:26:46;;;;;;;12.25;8.58;;;;;;;16.98;74.11;96498.73;127849;1093;28188;-92
2021/07/06 02:29:17;;;;;;;11.65;7.85;;;;;;;16.88;74.34;96497.19;127848;1093;29495;-92
2021/07/06 02:31:49;;;;;;;7.30;5.98;;;;;;;16.84;74.59;96495.48;127885;1093;29083;-92
2021/07/06 02:34:20;;;;;;;9.15;6.45;;;;;;;16.83;74.71;96501.95;127891;1093;25671;-92
2021/07/06 02:36:52;;;;;;;8.08;6.28;;;;;;;16.81;74.56;96496.13;127850;1092;26856;-92
2021/07/06 02:39:23;;;;;;;9.65;6.33;;;;;;;16.85;74.65;96497.05;127862;1090;25720;-93
2021/07/06 02:41:55;;;;;;;8.35;6.03;;;;;;;16.84;74.74;96501.63;127879;1092;26960;-92
2021/07/06 02:44:26;;;;;;;8.05;5.85;;;;;;;16.84;74.63;96512.33;126739;1093;1296866;-91
2021/07/06 02:46:57;;;;;;;8.18;5.45;;;;;;;16.86;74.64;96509.33;127883;1093;26121;-92
2021/07/06 02:49:29;;;;;;;8.20;5.98;;;;;;;16.87;74.77;96516.26;127962;1093;25444;-92
2021/07/06 02:52:01;;;;;;;8.38;6.08;;;;;;;16.91;74.51;96517.99;127911;1093;36019;-93
2021/07/06 02:54:32;;;;;;;9.80;7.00;;;;;;;16.91;74.40;96514.53;127896;1093;27347;-92
2021/07/06 02:57:08;;;;;;;9.28;6.95;;;;;;;16.95;74.25;96517.34;127859;1093;27389;-91
2021/07/06 02:59:39;;;;;;;8.18;6.75;;;;;;;16.95;74.41;96518.13;127849;1091;28554;-92
2021/07/06 03:02:11;;;;;;;8.55;6.45;;;;;;;16.91;74.36;96527.92;127920;1093;25749;-92
2021/07/06 03:04:42;;;;;;;9.68;6.43;;;;;;;16.89;74.74;96519.39;127868;1093;26777;-92
2021/07/06 03:07:14;;;;;;;9.80;7.75;;;;;;;16.90;74.83;96515.64;127875;1091;29977;-93
2021/07/06 03:09:45;;;;;;;10.38;7.55;;;;;;;16.93;74.91;96520.34;127840;1093;30544;-92
2021/07/06 03:12:16;;;;;;;10.90;7.00;;;;;;;16.96;74.81;96519.70;127880;1093;26954;-92
2021/07/06 03:14:48;;;;;;;9.25;6.90;;;;;;;16.98;74.83;96517.48;127858;1093;34959;-92
2021/07/06 03:17:19;;;;;;;9.35;7.13;;;;;;;16.91;75.22;96509.96;127873;1093;31246;-93
2021/07/06 03:19:51;;;;;;;8.75;7.05;;;;;;;16.96;75.41;96521.59;127888;1093;29874;-92
2021/07/06 03:22:22;;;;;;;8.83;6.33;;;;;;;17.01;75.32;96521.41;127847;1090;28723;-93
2021/07/06 03:24:53;;;;;;;10.48;6.50;;;;;;;17.08;75.50;96522.49;127836;1092;28448;-92
2021/07/06 03:27:25;;;;;;;10.33;7.08;;;;;;;17.14;75.20;96521.19;127871;1093;33797;-93
2021/07/06 03:29:57;;;;;;;8.35;6.50;;;;;;;17.18;75.32;96527.50;127872;1093;28149;-93
2021/07/06 03:32:28;;;;;;;9.63;7.45;;;;;;;17.22;75.44;96522.27;127914;1093;32014;-93
2021/07/06 03:35:01;;;;;;;9.85;7.63;;;;;;;17.28;75.03;96526.33;127907;1090;29393;-93
2021/07/06 03:37:32;;;;;;;11.45;8.13;;;;;;;17.40;75.28;96521.06;127933;1093;26170;-92
2021/07/06 03:40:04;;;;;;;10.25;7.73;;;;;;;17.50;75.05;96528.74;127846;1090;27970;-93
2021/07/06 03:42:36;;;;;;;10.60;8.13;;;;;;;17.61;74.87;96525.69;127878;1091;26686;-92
2021/07/06 03:45:12;;;;;;;11.85;8.38;;;;;;;17.68;74.71;96512.55;127895;1093;25321;-91
2021/07/06 03:47:44;;;;;;;11.05;8.38;;;;;;;17.77;74.71;96519.45;127863;1092;28113;-92
2021/07/06 03:50:19;;;;;;;11.18;8.45;;;;;;;17.88;74.37;96513.72;127905;1090;27460;-93
2021/07/06 03:52:52;;;;;;;9.23;7.85;;;;;;;17.99;74.15;96522.91;128215;1093;26443;-93
2021/07/06 03:55:24;;;;;;;11.40;7.83;;;;;;;17.99;73.96;96517.55;127927;1093;25996;-93
2021/07/06 03:57:56;;;;;;;11.03;7.85;;;;;;;17.92;73.64;96517.30;127870;1093;30126;-93
2021/07/06 04:00:29;;;;;;;11.13;8.53;;;;;;;17.87;73.78;96526.31;127826;1091;30192;-91
2021/07/06 04:03:01;;;;;;;10.88;7.58;;;;;;;17.97;73.97;96525.92;127911;1093;24676;-92
2021/07/06 04:05:32;;;;;;;8.68;7.13;;;;;;;18.10;73.90;96532.14;127952;1092;28149;-92
2021/07/06 04:08:04;;;;;;;8.73;7.08;;;;;;;18.15;74.04;96525.78;127848;1093;28572;-92
2021/07/06 04:10:35;;;;;;;8.43;7.10;;;;;;;18.17;73.98;96524.36;127857;1090;35741;-91
2021/07/06 04:13:07;;;;;;;11.10;7.85;;;;;;;18.18;73.77;96519.78;127864;1092;32059;-92
2021/07/06 04:15:39;;;;;;;10.53;7.58;;;;;;;18.25;73.74;96528.07;127877;1093;27918;-92
2021/07/06 04:18:10;;;;;;;10.60;7.80;;;;;;;18.33;73.87;96529.91;127844;1090;27360;-92
2021/07/06 04:20:42;;;;;;;9.95;7.13;;;;;;;18.46;73.78;96536.11;127842;1090;32502;-92
2021/07/06 04:23:14;;;;;;;10.60;7.70;;;;;;;18.62;73.78;96526.31;127872;1093;28146;-92
2021/07/06 04:25:45;;;;;;;9.00;7.13;;;;;;;18.77;73.71;96536.45;127861;1093;27513;-92
2021/07/06 04:28:17;;;;;;;9.23;7.13;;;;;;;18.94;73.28;96522.81;127848;1093;30682;-92
2021/07/06 04:30:48;;;;;;;10.15;7.33;;;;;;;19.03;72.53;96516.56;127882;1093;25997;-92
2021/07/06 04:33:20;;;;;;;8.55;7.10;;;;;;;19.06;72.28;96524.73;127922;1093;23671;-91
2021/07/06 04:35:51;;;;;;;8.43;6.98;;;;;;;19.13;71.89;96526.86;127875;1090;28657;-92
2021/07/06 04:38:23;;;;;;;10.35;7.10;;;;;;;19.19;71.84;96528.22;127895;1093;25914;-93
2021/07/06 04:40:55;;;;;;;9.08;7.05;;;;;;;19.35;71.82;96529.11;127891;1090;27911;-91
2021/07/06 04:43:27;;;;;;;8.78;7.08;;;;;;;19.47;71.28;96534.49;127883;1090;30295;-92
2021/07/06 04:45:58;;;;;;;9.85;7.18;;;;;;;19.60;71.12;96534.52;127873;1092;26928;-92
2021/07/06 04:48:29;;;;;;;9.00;7.07;;;;;;;19.71;71.16;96530.25;127971;1093;24465;-91
2021/07/06 04:51:06;;;;;;;10.25;7.13;;;;;;;19.78;70.63;96533.92;127924;1092;26449;-92
2021/07/06 04:53:39;;;;;;;7.90;6.15;;;;;;;19.86;70.54;96533.02;127922;1091;28210;-94
2021/07/06 04:56:10;;;;;;;9.33;7.13;;;;;;;19.96;70.30;96533.66;128130;1090;26293;-89
2021/07/06 04:58:42;;;;;;;10.03;7.10;;;;;;;20.05;70.06;96548.55;130048;1092;27681;-90
2021/07/06 05:01:13;;;;;;;8.40;7.10;;;;;;;20.20;70.28;96548.95;130029;1093;28088;-90
2021/07/06 05:03:45;;;;;;;8.63;6.68;;;;;;;20.33;69.46;96539.72;128379;1093;26729;-95
2021/07/06 05:06:16;;;;;;;8.20;6.55;;;;;;;20.43;69.54;96544.66;127927;1092;29434;-96
2021/07/06 05:08:48;;;;;;;8.43;6.40;;;;;;;20.64;69.00;96539.05;127838;1091;35683;-92
2021/07/06 05:11:20;;;;;;;9.20;6.63;;;;;;;20.88;68.77;96543.52;127855;1093;30003;-94
2021/07/06 05:13:51;;;;;;;8.50;6.68;;;;;;;21.19;68.32;96535.45;127857;1093;31002;-93
2021/07/06 05:16:23;;;;;;;8.03;6.33;;;;;;;21.55;67.81;96539.03;127833;1093;30378;-93
2021/07/06 05:18:54;;;;;;;8.80;7.18;;;;;;;21.97;67.24;96539.19;127844;1093;29749;-92
2021/07/06 05:21:26;;;;;;;8.90;6.38;;;;;;;23.30;67.44;96545.97;127897;1093;25637;-94
2021/07/06 05:23:57;;;;;;;7.78;5.63;;;;;;;25.80;65.01;96552.39;127905;1090;25549;-94
2021/07/06 05:26:29;;;;;;;7.73;5.65;;;;;;;28.11;61.24;96552.88;127893;1093;27479;-93
2021/07/06 05:29:00;;;;;;;6.78;5.55;;;;;;;30.24;58.33;96547.95;127888;1093;25032;-93
2021/07/06 05:31:32;;;;;;;8.00;5.28;;;;;;;32.42;53.82;96548.91;127953;1093;25842;-95
2021/07/06 05:34:04;;;;;;;6.95;4.83;;;;;;;33.97;50.10;96544.97;127870;1093;33104;-87
2021/07/06 05:36:35;;;;;;;6.15;4.55;;;;;;;35.56;47.90;96546.98;127891;1093;26756;-93
2021/07/06 05:39:07;;;;;;;6.20;3.77;;;;;;;36.75;43.91;96545.17;127859;1093;27755;-94
2021/07/06 05:41:38;;;;;;;4.63;3.65;;;;;;;37.54;41.28;96551.17;127874;1093;27838;-93
2021/07/06 05:44:12;;;;;;;6.93;3.90;;;;;;;37.87;39.55;96554.19;127898;1093;27601;-93
2021/07/06 05:46:44;;;;;;;4.60;3.13;;;;;;;37.91;36.87;96548.49;127907;1093;25839;-96
2021/07/06 05:49:16;;;;;;;3.88;3.00;;;;;;;37.41;35.21;96551.30;127888;1090;30817;-93
2021/07/06 05:51:49;;;;;;;6.35;2.90;;;;;;;38.33;34.78;96559.73;127865;1093;23279;-93
2021/07/06 05:54:20;;;;;;;4.30;2.73;;;;;;;37.97;33.10;96557.70;127878;1092;24528;-96
2021/07/06 05:56:52;;;;;;;3.18;2.90;;;;;;;38.42;32.97;96548.63;127875;1090;26309;-95
2021/07/06 05:59:23;;;;;;;5.20;3.18;;;;;;;38.40;32.42;96550.32;127814;1093;28575;-93
2021/07/06 06:01:55;;;;;;;2.90;2.68;;;;;;;38.01;30.54;96553.58;127836;1092;30834;-94
2021/07/06 06:04:27;;;;;;;3.38;2.88;;;;;;;37.96;31.57;96554.17;127866;1090;29697;-95
2021/07/06 06:06:59;;;;;;;2.78;2.58;;;;;;;38.31;30.43;96554.66;128484;1092;26510;-94
2021/07/06 06:09:30;;;;;;;3.05;2.75;;;;;;;38.80;30.69;96550.11;128197;1093;26861;-94
2021/07/06 06:12:02;;;;;;;4.05;2.73;;;;;;;40.06;31.11;96549.92;127929;1093;24333;-95
2021/07/06 06:14:34;;;;;;;2.88;2.58;;;;;;;41.84;30.01;96553.33;127963;1093;23981;-94
2021/07/06 06:17:05;;;;;;;4.98;2.65;;;;;;;43.36;28.37;96556.34;127839;1090;28600;-92
2021/07/06 06:19:37;;;;;;;3.40;2.80;;;;;;;43.54;27.98;96558.72;127871;1092;25573;-94
2021/07/06 06:22:09;;;;;;;3.58;2.48;;;;;;;43.12;25.72;96567.81;127845;1093;27915;-95
2021/07/06 06:24:40;;;;;;;2.38;2.00;;;;;;;42.42;26.06;96567.41;127892;1093;27845;-94
2021/07/06 06:27:12;;;;;;;1.98;1.85;;;;;;;42.95;24.15;96564.91;127903;1092;27367;-93
2021/07/06 06:29:43;;;;;;;2.30;2.10;;;;;;;41.72;24.03;96568.36;127895;1093;24692;-95
2021/07/06 06:32:16;;;;;;;2.28;2.08;;;;;;;40.80;25.22;96569.45;127895;1091;25290;-93
2021/07/06 06:34:48;;;;;;;2.20;2.00;;;;;;;40.65;24.61;96575.02;127886;1093;25228;-93
2021/07/06 06:37:19;;;;;;;2.50;2.30;;;;;;;40.79;24.97;96576.26;127911;1093;25782;-94
2021/07/06 06:39:51;;;;;;;2.00;1.90;;;;;;;40.54;24.49;96579.61;127886;1093;26411;-94
2021/07/06 06:42:22;;;;;;;2.20;1.98;;;;;;;39.88;23.79;96577.05;127889;1093;27892;-94
2021/07/06 06:44:54;;;;;;;2.20;2.00;;;;;;;39.92;25.67;96581.17;127852;1092;28462;-94
2021/07/06 06:47:25;;;;;;;3.50;2.30;;;;;;;41.39;24.54;96579.79;127914;1093;34313;-94
2021/07/06 06:49:58;;;;;;;2.45;2.25;;;;;;;41.38;24.18;96581.02;127856;1092;41233;-94
2021/07/06 06:52:30;;;;;;;3.20;2.13;;;;;;;41.59;23.79;96585.38;127931;1093;26780;-94
2021/07/06 06:55:01;;;;;;;2.08;1.98;;;;;;;42.07;24.28;96582.20;127935;1093;26302;-94
2021/07/06 06:57:33;;;;;;;2.48;2.28;;;;;;;42.49;22.37;96578.88;127943;1092;23452;-94
2021/07/06 07:00:10;;;;;;;1.88;1.78;;;;;;;43.12;24.03;96587.34;127915;1093;31675;-93
2021/07/06 07:02:43;;;;;;;2.33;2.13;;;;;;;42.95;21.28;96583.67;127872;1093;25460;-94
2021/07/06 07:05:16;;;;;;;2.00;1.78;;;;;;;42.84;22.24;96591.91;127908;1093;28161;-94
2021/07/06 07:07:47;;;;;;;1.90;1.80;;;;;;;42.54;21.82;96585.81;127842;1093;25100;-95
2021/07/06 07:10:20;;;;;;;1.93;1.70;;;;;;;42.05;21.38;96585.47;127901;1093;28540;-94
2021/07/06 07:12:53;;;;;;;2.38;1.80;;;;;;;41.65;22.13;96585.44;127865;1093;24863;-94
2021/07/06 07:15:25;;;;;;;2.08;1.93;;;;;;;41.94;21.59;96587.35;127913;1093;23461;-93
2021/07/06 07:17:56;;;;;;;1.90;1.80;;;;;;;42.62;22.07;96586.88;127850;1093;26560;-93
2021/07/06 07:20:27;;;;;;;2.38;2.13;;;;;;;43.67;22.56;96588.23;127907;1093;25793;-94
2021/07/06 07:23:00;;;;;;;3.45;2.05;;;;;;;45.59;21.44;96592.39;127959;1090;24486;-93
2021/07/06 07:25:32;;;;;;;2.98;2.18;;;;;;;46.37;20.34;96588.56;127934;1093;25201;-93
2021/07/06 07:28:04;;;;;;;3.75;2.30;;;;;;;45.90;19.32;96584.20;127854;1093;28034;-93
2021/07/06 07:30:36;;;;;;;2.63;2.43;;;;;;;45.17;19.43;96582.27;127915;1093;24344;-92
2021/07/06 07:33:07;;;;;;;3.00;2.60;;;;;;;44.41;19.93;96582.45;127879;1093;25303;-93
2021/07/06 07:35:39;;;;;;;2.78;2.58;;;;;;;45.24;19.77;96569.80;127894;1092;22962;-93
2021/07/06 07:38:10;;;;;;;2.83;2.63;;;;;;;44.49;19.41;96583.52;127865;1092;37795;-92
2021/07/06 07:40:42;;;;;;;3.50;3.20;;;;;;;43.87;19.96;96579.70;127857;1093;29785;-93
2021/07/06 07:43:14;;;;;;;3.15;2.88;;;;;;;45.05;21.15;96579.98;127856;1093;25398;-93
2021/07/06 07:45:45;;;;;;;3.00;2.70;;;;;;;46.38;19.09;96570.45;127880;1093;25871;-93
2021/07/06 07:48:17;;;;;;;2.87;2.63;;;;;;;45.30;19.02;96570.58;127863;1093;27455;-93
2021/07/06 07:50:48;;;;;;;2.68;2.48;;;;;;;46.21;20.23;96571.84;127890;1092;26500;-91
2021/07/06 07:53:20;;;;;;;2.68;2.48;;;;;;;48.24;19.71;96575.11;127875;1093;26295;-93
2021/07/06 07:55:53;;;;;;;3.43;3.23;;;;;;;47.22;16.54;96574.72;127844;1093;26561;-93
2021/07/06 07:58:25;;;;;;;3.40;3.10;;;;;;;45.82;18.34;96573.52;127883;1093;30738;-93
2021/07/06 08:00:56;;;;;;;3.18;2.88;;;;;;;45.33;18.24;96572.38;127888;1093;24379;-94
2021/07/06 08:03:28;;;;;;;2.63;2.43;;;;;;;45.09;19.29;96567.28;127888;1093;26893;-93
2021/07/06 08:06:01;;;;;;;4.80;2.80;;;;;;;44.94;18.27;96572.38;127882;1093;23751;-94
2021/07/06 08:08:33;;;;;;;2.55;2.35;;;;;;;44.09;18.75;96574.21;127964;1093;23690;-94
2021/07/06 08:11:05;;;;;;;3.30;3.00;;;;;;;43.28;19.65;96568.42;127847;1092;26668;-94
2021/07/06 08:13:36;;;;;;;3.13;2.75;;;;;;;43.31;19.44;96562.63;127883;1093;25138;-93
2021/07/06 08:16:08;;;;;;;2.65;2.45;;;;;;;42.90;19.07;96565.61;127888;1092;25517;-94
2021/07/06 08:18:40;;;;;;;2.70;2.50;;;;;;;43.13;19.39;96569.34;127889;1093;23026;-93
2021/07/06 08:21:11;;;;;;;2.88;2.68;;;;;;;43.46;20.40;96557.64;127889;1094;27815;-93
2021/07/06 08:23:43;;;;;;;3.48;3.18;;;;;;;44.89;19.58;96570.33;127884;1093;29360;-93
2021/07/06 08:26:16;;;;;;;2.95;2.70;;;;;;;45.35;19.04;96560.66;127904;1093;23057;-93
2021/07/06 08:28:48;;;;;;;3.58;3.23;;;;;;;46.02;19.16;96558.38;127901;1093;23227;-93
2021/07/06 08:31:19;;;;;;;3.73;3.20;;;;;;;46.70;17.98;96562.34;127911;1093;25342;-92
2021/07/06 08:33:51;;;;;;;3.50;3.20;;;;;;;44.30;17.50;96571.23;127891;1093;25991;-92
2021/07/06 08:36:24;;;;;;;3.65;3.18;;;;;;;43.55;19.90;96567.85;127880;1093;26134;-93
2021/07/06 08:38:55;;;;;;;3.60;3.00;;;;;;;43.94;20.50;96568.06;127911;1093;22823;-93
2021/07/06 08:41:27;;;;;;;3.73;3.20;;;;;;;44.85;19.16;96569.80;127914;1093;24296;-93
2021/07/06 08:43:58;;;;;;;3.50;2.78;;;;;;;45.04;20.36;96564.47;127891;1093;23805;-93
2021/07/06 08:46:33;;;;;;;3.10;2.80;;;;;;;43.43;19.58;96563.47;127895;1093;27804;-93
2021/07/06 08:49:06;;;;;;;4.53;3.18;;;;;;;42.22;20.86;96557.82;127934;1093;22801;-86
2021/07/06 08:51:41;;;;;;;5.03;3.30;;;;;;;39.40;21.68;96563.88;127909;1092;27127;-92
2021/07/06 08:54:13;;;;;;;4.40;3.73;;;;;;;36.25;24.45;96560.02;127870;1093;23790;-93
2021/07/06 08:56:45;;;;;;;4.30;3.70;;;;;;;33.71;27.34;96563.30;127801;1093;75135;-92
2021/07/06 08:59:16;;;;;;;4.35;3.70;;;;;;;32.55;29.48;96559.25;127890;1093;26612;-93
2021/07/06 09:01:50;;;;;;;4.28;3.88;;;;;;;32.24;30.45;96559.45;127843;1093;28759;-92
2021/07/06 09:04:23;;;;;;;4.30;3.90;;;;;;;32.23;30.41;96563.36;127917;1093;22859;-93
2021/07/06 09:06:59;;;;;;;5.53;4.10;;;;;;;31.23;31.43;96556.84;127890;1093;24930;-95
2021/07/06 09:09:30;;;;;;;5.35;4.18;;;;;;;31.26;32.45;96564.25;127936;1093;26364;-93
2021/07/06 09:12:02;;;;;;;5.65;4.08;;;;;;;31.23;32.39;96553.33;127933;1093;25445;-95
2021/07/06 09:14:34;;;;;;;6.53;4.45;;;;;;;31.53;32.94;96555.19;127887;1093;26651;-94
2021/07/06 09:17:14;;;;;;;5.50;4.03;;;;;;;31.65;32.82;96557.33;127888;1091;24231;-92
2021/07/06 09:19:47;;;;;;;4.83;3.80;;;;;;;31.22;33.88;96557.25;127896;1093;24697;-93
2021/07/06 09:22:24;;;;;;;4.43;4.00;;;;;;;31.31;33.73;96549.30;127862;1093;27224;-93
2021/07/06 09:25:02;;;;;;;3.85;3.45;;;;;;;30.39;34.84;96543.86;127890;1093;25427;-95
2021/07/06 09:27:36;;;;;;;4.95;4.38;;;;;;;30.61;35.21;96552.58;127948;1093;24343;-94
2021/07/06 09:30:24;;;;;;;5.78;4.28;;;;;;;30.35;35.46;96550.56;127872;1093;28570;-95
2021/07/06 09:32:58;;;;;;;6.80;4.50;;;;;;;29.57;35.74;96552.13;127849;1093;41077;-92
2021/07/06 09:35:30;;;;;;;6.65;4.55;;;;;;;29.29;37.18;96553.11;127962;1093;23449;-93
2021/07/06 09:38:04;;;;;;;6.20;4.33;;;;;;;29.67;37.30;96555.93;127951;1093;24212;-92
2021/07/06 09:40:38;;;;;;;5.08;4.03;;;;;;;29.65;37.07;96555.56;127930;1090;26248;-91
2021/07/06 09:43:30;;;;;;;5.68;4.70;;;;;;;29.46;37.20;96546.75;127894;1093;25263;-95
2021/07/06 09:46:09;;;;;;;5.28;4.48;;;;;;;29.66;38.02;96543.45;127915;1093;24259;-93
2021/07/06 09:48:44;;;;;;;6.25;4.90;;;;;;;29.52;36.67;96549.81;127908;1093;24006;-93
2021/07/06 09:51:28;;;;;;;5.25;4.75;;;;;;;28.97;36.76;96545.91;127884;1091;25974;-93
2021/07/06 09:53:59;;;;;;;5.28;4.68;;;;;;;29.08;38.35;96547.80;127897;1093;24460;-93
2021/07/06 09:56:31;;;;;;;5.85;5.03;;;;;;;29.02;37.88;96546.67;127925;1093;24781;-92
2021/07/06 09:59:05;;;;;;;6.20;4.75;;;;;;;29.07;37.94;96551.70;127930;1093;27445;-93
2021/07/06 10:01:36;;;;;;;6.38;5.13;;;;;;;28.86;39.15;96547.14;127926;1093;24379;-93
2021/07/06 10:04:08;;;;;;;5.73;4.50;;;;;;;28.65;39.26;96545.29;127860;1093;26608;-92
2021/07/06 10:06:40;;;;;;;6.03;4.63;;;;;;;28.45;39.20;96544.23;127901;1093;24390;-93
2021/07/06 10:09:11;;;;;;;6.38;4.70;;;;;;;28.38;39.55;96534.89;127899;1093;23780;-93
2021/07/06 10:11:43;;;;;;;6.38;4.83;;;;;;;28.84;39.63;96544.78;127892;1093;24067;-93
2021/07/06 10:14:15;;;;;;;6.70;4.85;;;;;;;28.90;39.44;96537.77;127884;1093;24869;-95
2021/07/06 10:16:47;;;;;;;7.95;5.28;;;;;;;28.53;39.47;96545.73;127861;1093;24953;-93
2021/07/06 10:19:19;;;;;;;7.77;5.40;;;;;;;28.37;39.95;96538.80;127878;1093;24209;-92
2021/07/06 10:21:51;;;;;;;5.75;4.93;;;;;;;28.26;40.25;96537.25;127872;1093;26914;-93
2021/07/06 10:24:23;;;;;;;6.43;4.63;;;;;;;28.24;41.42;96529.47;127863;1090;24373;-94
2021/07/06 10:27:04;;;;;;;6.13;4.75;;;;;;;28.42;41.00;96534.09;127897;1093;27487;-94
2021/07/06 10:29:37;;;;;;;6.23;5.08;;;;;;;28.09;41.08;96525.23;127867;1093;29136;-91
2021/07/06 10:32:09;;;;;;;5.70;4.67;;;;;;;28.12;42.48;96531.84;127885;1090;27270;-94
2021/07/06 10:34:46;;;;;;;8.18;4.70;;;;;;;28.57;42.21;96532.84;127884;1090;28534;-94
2021/07/06 10:37:31;;;;;;;5.45;4.53;;;;;;;28.53;41.70;96534.83;127867;1093;25926;-94
2021/07/06 10:40:21;;;;;;;5.83;4.58;;;;;;;28.81;41.61;96533.89;127933;1090;25236;-94
2021/07/06 10:42:53;;;;;;;;;;;;;;;29.24;42.01;96515.30;127886;1093;29977;-94
2021/07/06 10:45:34;;;;;;;4.93;4.43;;;;;;;29.61;42.18;96525.55;127892;1093;28638;-95
2021/07/06 10:48:06;;;;;;;5.38;4.60;;;;;;;29.94;41.97;96526.77;127853;1093;29963;-91
2021/07/06 10:50:54;;;;;;;6.25;4.95;;;;;;;30.06;40.37;96523.55;127905;1090;25495;-93
2021/07/06 10:53:27;;;;;;;6.88;4.85;;;;;;;30.22;40.59;96522.20;127893;1093;29525;-94
2021/07/06 10:56:07;;;;;;;5.93;4.63;;;;;;;30.27;40.28;96513.56;127879;1093;23344;-94
2021/07/06 10:58:58;;;;;;;7.20;4.28;;;;;;;30.19;40.01;96515.59;127910;1093;23312;-92
2021/07/06 11:01:59;;;;;;;5.60;4.93;;;;;;;30.10;39.78;96507.87;127900;1093;27608;-93
2021/07/06 11:05:08;;;;;;;7.33;4.37;;;;;;;29.88;39.62;96505.77;127986;1093;24707;-94
2021/07/06 11:07:55;;;;;;;4.98;4.40;;;;;;;29.47;39.73;96510.06;127905;1093;23006;-94
2021/07/06 11:10:41;;;;;;;6.08;4.83;;;;;;;29.23;40.13;96505.55;127981;1093;26631;-93
2021/07/06 11:13:22;;;;;;;6.18;4.58;;;;;;;29.18;41.19;96508.72;128362;1093;26505;-92
2021/07/06 11:15:53;;;;;;;6.13;5.05;;;;;;;29.26;41.35;96510.20;128966;1093;26028;-93
2021/07/06 11:18:41;;;;;;;5.63;4.90;;;;;;;29.23;41.14;96506.33;128534;1093;26273;-95
2021/07/06 11:21:32;;;;;;;7.80;5.05;;;;;;;29.28;41.56;96513.33;127974;1093;38421;-92
2021/07/06 11:24:18;;;;;;;6.25;5.20;;;;;;;29.41;41.16;96508.90;127933;1092;27401;-95
2021/07/06 11:26:50;;;;;;;5.65;4.98;;;;;;;29.47;41.72;96503.83;127930;1092;23650;-94
2021/07/06 11:29:38;;;;;;;5.78;4.45;;;;;;;29.61;41.37;96500.95;127817;1093;58585;-92
2021/07/06 11:32:18;;;;;;;5.45;4.45;;;;;;;29.79;40.70;96503.50;127880;1093;34945;-93
2021/07/06 11:34:49;;;;;;;5.63;4.83;;;;;;;29.95;40.92;96495.52;127911;1093;24579;-92
2021/07/06 11:37:22;;;;;;;7.28;4.68;;;;;;;30.09;40.49;96498.12;127912;1093;22782;-93
2021/07/06 11:39:55;;;;;;;6.33;5.43;;;;;;;30.17;40.02;96498.05;127876;1093;32364;-92
2021/07/06 11:42:38;;;;;;;5.75;4.45;;;;;;;30.24;40.01;96500.68;127868;1093;30452;-93
2021/07/06 11:45:12;;;;;;;5.43;4.53;;;;;;;30.04;39.85;96492.30;127876;1093;26705;-93
2021/07/06 11:47:44;;;;;;;5.55;4.93;;;;;;;29.94;40.47;96491.23;127896;1092;26969;-93
2021/07/06 11:50:27;;;;;;;5.08;4.58;;;;;;;30.09;40.34;96487.17;127935;1090;25291;-93
2021/07/06 11:52:59;;;;;;;5.83;4.85;;;;;;;30.04;39.90;96487.61;127874;1090;28725;-93